createdAt,value
2024-05-09T00:00:35.857Z,13.82
2024-05-09T00:03:07.608Z,13.79
2024-05-09T00:05:34.716Z,13.78
2024-05-09T00:08:01.394Z,13.77
2024-05-09T00:10:35.403Z,13.77
2024-05-09T00:13:04.403Z,13.78
2024-05-09T00:15:31.011Z,13.77
2024-05-09T00:17:57.525Z,13.78
2024-05-09T00:20:32.722Z,13.78
2024-05-09T00:23:04.341Z,13.78
2024-05-09T00:25:30.720Z,13.77
2024-05-09T00:27:57.070Z,13.77
2024-05-09T00:30:31.675Z,13.78
2024-05-09T00:33:02.151Z,13.76
2024-05-09T00:35:29.066Z,13.75
2024-05-09T00:37:55.586Z,13.73
2024-05-09T00:40:31.018Z,13.72
2024-05-09T00:43:05.386Z,13.71
2024-05-09T00:45:32.604Z,13.71
2024-05-09T00:48:00.637Z,13.70
2024-05-09T00:50:35.520Z,13.72
2024-05-09T00:53:04.620Z,13.72
2024-05-09T00:55:31.024Z,13.74
2024-05-09T00:57:57.484Z,13.76
2024-05-09T01:00:31.527Z,13.77
2024-05-09T01:03:04.899Z,13.80
2024-05-09T01:05:32.354Z,13.81
2024-05-09T01:07:58.857Z,13.84
2024-05-09T01:10:32.298Z,13.85
2024-05-09T01:13:01.338Z,13.87
2024-05-09T01:15:27.717Z,13.90
2024-05-09T01:17:55.548Z,13.91
2024-05-09T01:20:31.846Z,13.92
2024-05-09T01:23:06.867Z,13.95
2024-05-09T01:25:33.390Z,13.95
2024-05-09T01:28:00.177Z,13.95
2024-05-09T01:30:33.764Z,13.96
2024-05-09T01:33:04.833Z,13.96
2024-05-09T01:35:31.996Z,13.97
2024-05-09T01:37:59.001Z,13.98
2024-05-09T01:40:36.104Z,13.99
2024-05-09T01:43:05.472Z,13.98
2024-05-09T01:45:31.860Z,14.00
2024-05-09T01:47:58.953Z,13.98
2024-05-09T01:50:37.021Z,13.99
2024-05-09T01:53:07.176Z,13.99
2024-05-09T01:55:33.993Z,13.99
2024-05-09T01:58:00.369Z,13.98
2024-05-09T02:00:38.023Z,13.99
2024-05-09T02:03:14.638Z,14.00
2024-05-09T02:05:43.840Z,14.00
2024-05-09T02:08:28.928Z,14.01
2024-05-09T02:10:55.589Z,14.00
2024-05-09T02:13:22.394Z,14.01
2024-05-09T02:15:52.178Z,14.01
2024-05-09T02:18:21.748Z,14.01
2024-05-09T02:20:48.643Z,14.02
2024-05-09T02:23:15.145Z,14.02
2024-05-09T02:25:41.855Z,14.03
2024-05-09T02:28:08.747Z,14.03
2024-05-09T02:30:39.769Z,14.02
2024-05-09T02:33:13.320Z,14.02
2024-05-09T02:35:41.105Z,14.02
2024-05-09T02:38:09.227Z,14.03
2024-05-09T02:40:38.302Z,14.02
2024-05-09T02:43:06.537Z,14.02
2024-05-09T02:45:33.406Z,14.02
2024-05-09T02:48:00.525Z,14.03
2024-05-09T02:50:34.473Z,14.03
2024-05-09T02:53:05.436Z,14.03
2024-05-09T02:55:31.986Z,14.03
2024-05-09T02:57:58.679Z,14.02
2024-05-09T03:00:34.279Z,14.02
2024-05-09T03:03:06.806Z,14.03
2024-05-09T03:05:33.908Z,14.02
2024-05-09T03:08:00.561Z,14.02
2024-05-09T03:10:29.146Z,14.03
2024-05-09T03:13:05.281Z,14.02
2024-05-09T03:15:32.842Z,14.02
2024-05-09T03:18:00.509Z,14.02
2024-05-09T03:20:33.093Z,14.02
2024-05-09T03:23:02.237Z,14.02
2024-05-09T03:25:28.724Z,14.02
2024-05-09T03:27:55.104Z,14.03
2024-05-09T03:30:31.004Z,14.02
2024-05-09T03:33:09.455Z,14.03
2024-05-09T03:35:36.086Z,14.03
2024-05-09T03:38:02.502Z,14.03
2024-05-09T03:40:30.979Z,14.02
2024-05-09T03:42:58.634Z,14.03
2024-05-09T03:45:25.448Z,14.03
2024-05-09T03:47:52.477Z,14.01
2024-05-09T03:50:26.147Z,14.01
2024-05-09T03:53:01.266Z,14.00
2024-05-09T03:55:28.393Z,14.01
2024-05-09T03:57:54.782Z,14.01
2024-05-09T04:00:30.549Z,14.02
2024-05-09T04:03:03.912Z,14.01
2024-05-09T04:05:30.870Z,14.02
2024-05-09T04:07:57.548Z,14.03
2024-05-09T04:10:31.321Z,14.04
2024-05-09T04:13:00.358Z,14.04
2024-05-09T04:15:26.884Z,14.05
2024-05-09T04:17:53.439Z,14.05
2024-05-09T04:20:32.591Z,14.05
2024-05-09T04:23:04.704Z,14.05
2024-05-09T04:25:34.541Z,14.05
2024-05-09T04:28:00.978Z,14.06
2024-05-09T04:30:36.360Z,14.06
2024-05-09T04:33:08.034Z,14.08
2024-05-09T04:35:36.327Z,14.08
2024-05-09T04:38:03.398Z,14.07
2024-05-09T04:40:34.256Z,14.08
2024-05-09T04:43:03.258Z,14.08
2024-05-09T04:45:30.034Z,14.09
2024-05-09T04:47:56.774Z,14.08
2024-05-09T04:50:32.732Z,14.09
2024-05-09T04:53:03.588Z,14.08
2024-05-09T04:55:30.124Z,14.09
2024-05-09T04:57:56.497Z,14.09
2024-05-09T05:00:32.364Z,14.10
2024-05-09T05:03:06.670Z,14.11
2024-05-09T05:05:34.624Z,14.12
2024-05-09T05:08:01.211Z,14.13
2024-05-09T05:10:33.826Z,14.13
2024-05-09T05:13:23.771Z,14.14
2024-05-09T05:15:58.190Z,14.15
2024-05-09T05:18:25.981Z,14.17
2024-05-09T05:20:52.758Z,14.17
2024-05-09T05:23:20.447Z,14.18
2024-05-09T05:25:52.170Z,14.19
2024-05-09T05:28:19.193Z,14.22
2024-05-09T05:30:46.330Z,14.23
2024-05-09T05:33:13.783Z,14.23
2024-05-09T05:35:40.886Z,14.25
2024-05-09T05:38:08.023Z,14.26
2024-05-09T05:40:37.127Z,14.27
2024-05-09T05:43:05.326Z,14.29
2024-05-09T05:45:31.715Z,14.30
2024-05-09T05:47:58.322Z,14.31
2024-05-09T05:50:32.537Z,14.31
2024-05-09T05:53:02.829Z,14.32
2024-05-09T05:55:29.246Z,14.32
2024-05-09T05:57:55.633Z,14.33
2024-05-09T06:00:29.999Z,14.34
2024-05-09T06:03:04.539Z,14.34
2024-05-09T06:05:31.216Z,14.35
2024-05-09T06:07:57.956Z,14.37
2024-05-09T06:10:30.062Z,14.39
2024-05-09T06:13:03.870Z,14.41
2024-05-09T06:15:30.239Z,14.42
2024-05-09T06:17:56.775Z,14.44
2024-05-09T06:20:31.797Z,14.47
2024-05-09T06:23:03.273Z,14.49
2024-05-09T06:25:30.167Z,14.53
2024-05-09T06:27:56.566Z,14.56
2024-05-09T06:30:30.320Z,14.59
2024-05-09T06:33:04.566Z,14.63
2024-05-09T06:35:31.621Z,14.66
2024-05-09T06:37:58.301Z,14.69
2024-05-09T06:40:29.441Z,14.76
2024-05-09T06:43:01.931Z,14.82
2024-05-09T06:45:28.428Z,14.85
2024-05-09T06:47:54.966Z,14.91
2024-05-09T06:50:24.318Z,14.96
2024-05-09T06:52:54.344Z,15.01
2024-05-09T06:55:21.161Z,15.04
2024-05-09T06:57:48.003Z,15.11
2024-05-09T07:00:22.792Z,15.17
2024-05-09T07:02:57.301Z,15.24
2024-05-09T07:05:24.597Z,15.28
2024-05-09T07:07:51.384Z,15.33
2024-05-09T07:10:25.588Z,15.37
2024-05-09T07:12:58.790Z,15.42
2024-05-09T07:15:25.251Z,15.47
2024-05-09T07:17:51.869Z,15.48
2024-05-09T07:20:23.749Z,15.52
2024-05-09T07:22:58.587Z,15.57
2024-05-09T07:25:25.064Z,15.58
2024-05-09T07:27:51.499Z,15.61
2024-05-09T07:30:23.600Z,15.68
2024-05-09T07:32:57.515Z,15.72
2024-05-09T07:35:24.150Z,15.76
2024-05-09T07:37:50.768Z,15.76
2024-05-09T07:40:25.005Z,15.75
2024-05-09T07:42:59.228Z,15.79
2024-05-09T07:45:43.296Z,15.81
2024-05-09T07:49:44.803Z,15.81
2024-05-09T07:53:00.974Z,15.84
2024-05-09T07:53:50.004Z,15.84
2024-05-09T07:56:21.627Z,15.84
2024-05-09T07:58:50.912Z,15.86
2024-05-09T08:01:18.828Z,15.89
2024-05-09T08:03:45.844Z,15.91
2024-05-09T08:06:12.575Z,15.93
2024-05-09T08:08:39.351Z,15.92
2024-05-09T08:11:06.558Z,15.98
2024-05-09T08:13:33.174Z,16.00
2024-05-09T08:15:59.691Z,16.01
2024-05-09T08:18:26.408Z,16.03
2024-05-09T08:20:53.005Z,16.04
2024-05-09T08:23:19.457Z,16.03
2024-05-09T08:25:45.982Z,16.04
2024-05-09T08:28:12.900Z,16.02
2024-05-09T08:30:39.636Z,16.04
2024-05-09T08:33:07.354Z,16.02
2024-05-09T08:35:35.103Z,16.07
2024-05-09T08:38:06.652Z,16.07
2024-05-09T08:40:36.324Z,16.05
2024-05-09T08:43:09.780Z,16.08
2024-05-09T08:45:38.872Z,16.08
2024-05-09T08:48:08.745Z,16.15
2024-05-09T08:50:40.263Z,16.19
2024-05-09T08:53:07.847Z,16.25
2024-05-09T08:55:38.136Z,16.31
2024-05-09T08:58:07.498Z,16.40
2024-05-09T09:00:37.209Z,16.45
2024-05-09T09:03:06.735Z,16.51
2024-05-09T09:05:35.322Z,16.51
2024-05-09T09:08:06.464Z,16.53
2024-05-09T09:10:33.579Z,16.56
2024-05-09T09:13:04.984Z,16.58
2024-05-09T09:15:32.276Z,16.63
2024-05-09T09:18:02.109Z,16.65
2024-05-09T09:20:35.793Z,16.69
2024-05-09T09:23:04.487Z,16.74
2024-05-09T09:25:31.267Z,16.78
2024-05-09T09:27:58.218Z,16.87
2024-05-09T09:30:36.442Z,16.91
2024-05-09T09:33:05.849Z,16.98
2024-05-09T09:35:32.836Z,17.00
2024-05-09T09:38:02.654Z,17.02
2024-05-09T09:40:36.226Z,17.04
2024-05-09T09:43:13.837Z,17.05
2024-05-09T09:45:42.973Z,17.10
2024-05-09T09:48:10.365Z,17.15
2024-05-09T09:50:37.474Z,17.23
2024-05-09T09:53:06.971Z,17.31
2024-05-09T09:55:33.503Z,17.41
2024-05-09T09:58:00.715Z,17.52
2024-05-09T10:00:32.618Z,17.58
2024-05-09T10:03:00.562Z,17.68
2024-05-09T10:05:28.133Z,17.75
2024-05-09T10:07:56.215Z,17.84
2024-05-09T10:10:32.029Z,17.91
2024-05-09T10:13:00.537Z,17.97
2024-05-09T10:15:27.429Z,18.02
2024-05-09T10:17:54.417Z,18.12
2024-05-09T10:20:22.230Z,18.19
2024-05-09T10:22:54.143Z,18.27
2024-05-09T10:25:20.940Z,18.34
2024-05-09T10:27:55.023Z,18.41
2024-05-09T10:30:29.726Z,18.46
2024-05-09T10:33:02.290Z,18.51
2024-05-09T10:35:31.309Z,18.55
2024-05-09T10:38:06.344Z,18.63
2024-05-09T10:40:33.162Z,18.68
2024-05-09T10:43:02.604Z,18.70
2024-05-09T10:45:31.895Z,18.72
2024-05-09T10:47:58.598Z,18.76
2024-05-09T10:50:29.126Z,18.80
2024-05-09T10:53:00.283Z,18.83
2024-05-09T10:55:27.380Z,18.88
2024-05-09T10:57:53.966Z,18.89
2024-05-09T11:00:27.530Z,18.96
2024-05-09T11:03:00.137Z,19.01
2024-05-09T11:05:26.841Z,19.11
2024-05-09T11:07:53.463Z,19.17
2024-05-09T11:10:27.388Z,19.23
2024-05-09T11:12:58.352Z,19.30
2024-05-09T11:15:25.768Z,19.35
2024-05-09T11:17:52.326Z,19.36
2024-05-09T11:20:26.525Z,19.40
2024-05-09T11:22:57.631Z,19.47
2024-05-09T11:25:24.220Z,19.53
2024-05-09T11:27:50.731Z,19.58
2024-05-09T11:30:26.726Z,19.52
2024-05-09T11:32:58.727Z,19.50
2024-05-09T11:35:26.407Z,19.46
2024-05-09T11:37:52.855Z,19.45
2024-05-09T11:40:25.322Z,19.43
2024-05-09T11:42:55.079Z,19.43
2024-05-09T11:45:21.976Z,19.48
2024-05-09T11:47:52.094Z,19.49
2024-05-09T11:50:26.632Z,19.46
2024-05-09T11:52:56.563Z,19.44
2024-05-09T11:55:27.362Z,19.41
2024-05-09T11:57:54.830Z,19.37
2024-05-09T12:00:29.482Z,19.34
2024-05-09T12:03:04.548Z,19.31
2024-05-09T12:05:31.451Z,19.28
2024-05-09T12:07:58.027Z,19.33
2024-05-09T12:10:32.540Z,19.40
2024-05-09T12:13:01.846Z,19.41
2024-05-09T12:15:28.562Z,19.48
2024-05-09T12:17:55.958Z,19.50
2024-05-09T12:20:32.160Z,19.56
2024-05-09T12:23:02.444Z,19.55
2024-05-09T12:25:28.902Z,19.58
2024-05-09T12:27:55.466Z,19.62
2024-05-09T12:30:32.636Z,19.74
2024-05-09T12:33:04.163Z,20.12
2024-05-09T12:35:30.769Z,20.36
2024-05-09T12:37:57.252Z,20.62
2024-05-09T12:40:34.053Z,20.74
2024-05-09T12:43:03.887Z,20.84
2024-05-09T12:45:30.452Z,20.91
2024-05-09T12:47:57.218Z,20.92
2024-05-09T12:50:31.026Z,20.94
2024-05-09T12:52:59.453Z,20.94
2024-05-09T12:55:25.958Z,20.94
2024-05-09T12:57:52.641Z,20.92
2024-05-09T13:00:24.111Z,20.96
2024-05-09T13:02:57.677Z,20.96
2024-05-09T13:05:24.613Z,20.90
2024-05-09T13:07:51.248Z,20.86
2024-05-09T13:10:28.603Z,20.81
2024-05-09T13:12:58.979Z,20.75
2024-05-09T13:15:25.461Z,20.78
2024-05-09T13:17:52.107Z,20.80
2024-05-09T13:20:25.666Z,20.84
2024-05-09T13:22:55.996Z,20.97
2024-05-09T13:25:23.884Z,21.17
2024-05-09T13:27:50.792Z,21.29
2024-05-09T13:30:25.922Z,21.35
2024-05-09T13:32:56.748Z,21.44
2024-05-09T13:35:23.228Z,21.76
2024-05-09T13:37:49.768Z,21.90
2024-05-09T13:40:26.690Z,22.00
2024-05-09T13:42:56.646Z,22.07
2024-05-09T13:45:23.100Z,22.09
2024-05-09T13:47:49.748Z,22.07
2024-05-09T13:50:27.677Z,22.01
2024-05-09T13:52:59.919Z,21.97
2024-05-09T13:55:26.385Z,21.91
2024-05-09T13:57:52.980Z,21.85
2024-05-09T14:00:31.763Z,21.90
2024-05-09T14:03:06.067Z,22.00
2024-05-09T14:05:32.889Z,22.03
2024-05-09T14:07:59.712Z,22.05
2024-05-09T14:10:31.015Z,22.03
2024-05-09T14:12:58.588Z,22.00
2024-05-09T14:15:25.094Z,21.90
2024-05-09T14:17:51.748Z,21.85
2024-05-09T14:20:28.207Z,21.74
2024-05-09T14:22:57.974Z,21.77
2024-05-09T14:25:26.347Z,21.87
2024-05-09T14:27:52.976Z,22.07
2024-05-09T14:30:29.551Z,22.26
2024-05-09T14:33:01.119Z,22.53
2024-05-09T14:35:27.746Z,22.73
2024-05-09T14:37:54.301Z,22.91
2024-05-09T14:40:34.922Z,22.98
2024-05-09T14:43:06.499Z,23.01
2024-05-09T14:45:34.352Z,22.96
2024-05-09T14:48:01.157Z,22.89
2024-05-09T14:50:35.030Z,23.02
2024-05-09T14:53:05.626Z,23.20
2024-05-09T14:55:32.265Z,23.36
2024-05-09T14:57:58.785Z,23.44
2024-05-09T15:00:29.212Z,23.50
2024-05-09T15:03:00.479Z,23.54
2024-05-09T15:05:27.246Z,23.51
2024-05-09T15:07:53.924Z,23.50
2024-05-09T15:10:27.105Z,23.42
2024-05-09T15:13:00.742Z,23.40
2024-05-09T15:15:27.279Z,23.37
2024-05-09T15:17:54.930Z,23.27
2024-05-09T15:20:30.373Z,23.15
2024-05-09T15:23:01.067Z,23.04
2024-05-09T15:25:27.640Z,22.99
2024-05-09T15:27:54.562Z,22.95
2024-05-09T15:30:28.095Z,22.89
2024-05-09T15:32:57.850Z,22.86
2024-05-09T15:35:24.422Z,22.83
2024-05-09T15:37:50.962Z,22.85
2024-05-09T15:40:26.327Z,22.90
2024-05-09T15:43:02.552Z,22.87
2024-05-09T15:45:29.329Z,22.77
2024-05-09T15:47:56.901Z,22.70
2024-05-09T15:50:35.100Z,22.61
2024-05-09T15:53:05.755Z,22.49
2024-05-09T15:55:35.249Z,22.38
2024-05-09T15:58:02.163Z,22.32
2024-05-09T16:00:36.751Z,22.22
2024-05-09T16:03:07.138Z,22.19
2024-05-09T16:05:34.015Z,22.25
2024-05-09T16:08:00.772Z,22.40
2024-05-09T16:10:32.526Z,22.58
2024-05-09T16:13:00.775Z,22.80
2024-05-09T16:15:27.417Z,22.98
2024-05-09T16:17:54.049Z,23.15
2024-05-09T16:20:33.265Z,23.26
2024-05-09T16:23:05.118Z,23.25
2024-05-09T16:25:31.644Z,23.18
2024-05-09T16:27:58.278Z,23.07
2024-05-09T16:30:31.726Z,22.97
2024-05-09T16:33:01.886Z,22.85
2024-05-09T16:35:28.610Z,22.74
2024-05-09T16:37:55.126Z,22.64
2024-05-09T16:40:29.770Z,22.56
2024-05-09T16:43:04.026Z,22.45
2024-05-09T16:45:31.106Z,22.41
2024-05-09T16:47:58.924Z,22.31
2024-05-09T16:50:29.656Z,22.25
2024-05-09T16:52:59.573Z,22.15
2024-05-09T16:55:26.088Z,22.11
2024-05-09T16:57:52.727Z,22.01
2024-05-09T17:00:30.884Z,21.97
2024-05-09T17:03:06.038Z,21.90
2024-05-09T17:05:33.279Z,21.81
2024-05-09T17:08:01.055Z,21.75
2024-05-09T17:10:32.633Z,21.69
2024-05-09T17:13:01.534Z,21.62
2024-05-09T17:15:28.132Z,21.54
2024-05-09T17:17:55.337Z,21.50
2024-05-09T17:20:29.535Z,21.40
2024-05-09T17:23:01.561Z,21.37
2024-05-09T17:25:28.297Z,21.29
2024-05-09T17:27:55.036Z,21.22
2024-05-09T17:30:29.008Z,21.15
2024-05-09T17:33:01.654Z,21.08
2024-05-09T17:35:28.401Z,20.98
2024-05-09T17:37:54.908Z,20.93
2024-05-09T17:40:30.512Z,20.85
2024-05-09T17:43:00.970Z,20.79
2024-05-09T17:45:27.479Z,20.72
2024-05-09T17:47:54.101Z,20.65
2024-05-09T17:50:27.476Z,20.60
2024-05-09T17:53:00.706Z,20.54
2024-05-09T17:55:27.412Z,20.48
2024-05-09T17:57:54.204Z,20.40
2024-05-09T18:00:29.224Z,20.36
2024-05-09T18:03:03.834Z,20.28
2024-05-09T18:05:30.752Z,20.23
2024-05-09T18:07:57.464Z,20.18
2024-05-09T18:10:30.096Z,20.13
2024-05-09T18:13:02.416Z,20.07
2024-05-09T18:15:29.025Z,20.02
2024-05-09T18:17:55.630Z,19.94
2024-05-09T18:20:32.614Z,19.88
2024-05-09T18:23:07.395Z,19.82
2024-05-09T18:25:33.964Z,19.76
2024-05-09T18:28:02.742Z,19.72
2024-05-09T18:30:34.682Z,19.65
2024-05-09T18:33:03.573Z,19.59
2024-05-09T18:35:30.220Z,19.55
2024-05-09T18:37:56.812Z,19.51
2024-05-09T18:40:32.390Z,19.49
2024-05-09T18:43:03.382Z,19.42
2024-05-09T18:45:30.162Z,19.39
2024-05-09T18:47:56.882Z,19.34
2024-05-09T18:50:31.995Z,19.34
2024-05-09T18:53:03.396Z,19.30
2024-05-09T18:55:29.837Z,19.24
2024-05-09T18:57:56.450Z,19.23
2024-05-09T19:00:31.583Z,19.19
2024-05-09T19:03:04.676Z,19.15
2024-05-09T19:05:32.196Z,19.13
2024-05-09T19:07:58.869Z,19.06
2024-05-09T19:10:28.886Z,19.04
2024-05-09T19:12:59.836Z,19.02
2024-05-09T19:15:26.278Z,18.97
2024-05-09T19:17:52.850Z,18.93
2024-05-09T19:20:25.494Z,18.88
2024-05-09T19:22:58.275Z,18.82
2024-05-09T19:25:24.721Z,18.77
2024-05-09T19:27:51.391Z,18.72
2024-05-09T19:30:28.957Z,18.68
2024-05-09T19:33:02.643Z,18.63
2024-05-09T19:35:29.163Z,18.53
2024-05-09T19:37:55.814Z,18.53
2024-05-09T19:40:28.992Z,18.45
2024-05-09T19:42:58.686Z,18.41
2024-05-09T19:45:25.291Z,18.36
2024-05-09T19:47:51.957Z,18.31
2024-05-09T19:50:26.667Z,18.26
2024-05-09T19:52:59.367Z,18.22
2024-05-09T19:55:25.919Z,18.19
2024-05-09T19:57:52.428Z,18.13
2024-05-09T20:00:26.003Z,18.06
2024-05-09T20:02:56.130Z,18.01
2024-05-09T20:05:23.331Z,17.94
2024-05-09T20:07:50.141Z,17.91
2024-05-09T20:10:23.478Z,17.87
2024-05-09T20:12:53.644Z,17.79
2024-05-09T20:15:20.156Z,17.75
2024-05-09T20:17:46.848Z,17.73
2024-05-09T20:20:23.561Z,17.68
2024-05-09T20:22:58.287Z,17.67
2024-05-09T20:25:24.729Z,17.64
2024-05-09T20:27:51.314Z,17.61
2024-05-09T20:30:25.336Z,17.56
2024-05-09T20:32:57.973Z,17.52
2024-05-09T20:35:26.161Z,17.47
2024-05-09T20:37:52.608Z,17.46
2024-05-09T20:40:25.782Z,17.43
2024-05-09T20:42:58.264Z,17.39
2024-05-09T20:45:25.034Z,17.33
2024-05-09T20:47:51.619Z,17.32
2024-05-09T20:50:27.882Z,17.26
2024-05-09T20:53:02.248Z,17.27
2024-05-09T20:55:29.718Z,17.23
2024-05-09T20:57:56.447Z,17.22
2024-05-09T21:00:30.020Z,17.19
2024-05-09T21:03:04.881Z,17.15
2024-05-09T21:05:31.736Z,17.10
2024-05-09T21:07:58.327Z,17.10
2024-05-09T21:10:26.831Z,17.07
2024-05-09T21:12:53.805Z,17.05
2024-05-09T21:15:20.274Z,17.03
2024-05-09T21:17:46.863Z,17.00
2024-05-09T21:20:17.448Z,16.94
2024-05-09T21:22:47.203Z,16.93
2024-05-09T21:25:13.984Z,16.87
2024-05-09T21:27:40.679Z,16.86
2024-05-09T21:30:12.914Z,16.75
2024-05-09T21:32:44.876Z,16.77
2024-05-09T21:35:11.851Z,16.75
2024-05-09T21:37:38.276Z,16.72
2024-05-09T21:40:09.560Z,16.70
2024-05-09T21:42:40.102Z,16.66
2024-05-09T21:45:06.839Z,16.61
2024-05-09T21:47:34.552Z,16.59
2024-05-09T21:50:01.033Z,16.51
2024-05-09T21:52:27.608Z,16.53
2024-05-09T21:54:54.059Z,16.51
2024-05-09T21:57:21.754Z,16.47
2024-05-09T21:59:48.176Z,16.44
2024-05-09T22:02:14.769Z,16.44
2024-05-09T22:04:41.671Z,16.44
2024-05-09T22:07:09.174Z,16.43
2024-05-09T22:09:35.689Z,16.41
2024-05-09T22:12:02.225Z,16.37
2024-05-09T22:14:28.821Z,16.38
2024-05-09T22:16:55.380Z,16.35
2024-05-09T22:19:21.915Z,16.35
2024-05-09T22:21:48.998Z,16.31
2024-05-09T22:24:15.476Z,16.30
2024-05-09T22:26:41.922Z,16.28
2024-05-09T22:29:08.360Z,16.26
2024-05-09T22:31:34.859Z,16.21
2024-05-09T22:34:01.547Z,16.21
2024-05-09T22:36:28.390Z,16.17
2024-05-09T22:38:54.822Z,16.11
2024-05-09T22:41:21.262Z,16.02
2024-05-09T22:43:47.792Z,16.00
2024-05-09T22:46:14.271Z,15.95
2024-05-09T22:48:40.894Z,15.89
2024-05-09T22:51:07.681Z,15.90
2024-05-09T22:53:34.099Z,15.86
2024-05-09T22:56:00.562Z,15.85
2024-05-09T22:58:27.111Z,15.79
2024-05-09T23:00:53.873Z,15.79
2024-05-09T23:03:21.896Z,15.78
2024-05-09T23:05:49.173Z,15.73
2024-05-09T23:08:16.028Z,15.73
2024-05-09T23:10:42.476Z,15.73
2024-05-09T23:13:09.181Z,15.71
2024-05-09T23:15:37.479Z,15.67
2024-05-09T23:18:04.614Z,15.64
2024-05-09T23:20:37.070Z,15.64
2024-05-09T23:23:06.782Z,15.61
2024-05-09T23:25:33.396Z,15.59
2024-05-09T23:28:00.058Z,15.57
2024-05-09T23:30:37.026Z,15.54
2024-05-09T23:33:07.369Z,15.51
2024-05-09T23:35:34.080Z,15.48
2024-05-09T23:38:00.511Z,15.43
2024-05-09T23:40:37.310Z,15.38
2024-05-09T23:43:07.345Z,15.33
2024-05-09T23:45:34.042Z,15.28
2024-05-09T23:48:01.121Z,15.21
2024-05-09T23:50:34.343Z,15.14
2024-05-09T23:53:04.802Z,15.10
2024-05-09T23:55:31.943Z,15.06
2024-05-09T23:57:58.753Z,15.05
